Time;durP1;ratioP1;P1;durP2;ratioP2;P2;SDS_P1;SDS_P2;PMS_P1;PMS_P2;Temp;Humidity;BMP_temperature;BMP_pressure;BME280_temperature;BME280_humidity;BME280_pressure;Samples;Min_cycle;Max_cycle;Signal;HPM_P1;HPM_P2
2022/09/04 00:00:48;;;;;;;1.38;1.30;;;12.90;99.90;;;;;;6321046;28;20302;-68
2022/09/04 00:04:00;;;;;;;1.35;1.27;;;12.90;99.90;;;;;;6311116;28;20290;-67
2022/09/04 00:07:16;;;;;;;1.58;1.58;;;12.90;99.90;;;;;;6311159;28;20266;-68
2022/09/04 00:10:29;;;;;;;1.52;1.50;;;12.90;99.90;;;;;;6311666;28;20263;-68
2022/09/04 00:13:39;;;;;;;1.50;1.40;;;12.80;99.90;;;;;;6293067;28;20590;-68
2022/09/04 00:16:51;;;;;;;1.40;1.33;;;12.70;99.90;;;;;;6311288;28;20469;-68
2022/09/04 00:20:02;;;;;;;1.30;1.30;;;12.80;99.90;;;;;;6310891;28;20298;-68
2022/09/04 00:23:17;;;;;;;1.30;1.30;;;12.80;99.90;;;;;;6310506;28;20290;-67
2022/09/04 00:26:41;;;;;;;1.58;1.58;;;12.80;99.90;;;;;;6310782;28;20271;-68
2022/09/04 00:29:53;;;;;;;1.20;1.20;;;12.90;99.90;;;;;;6310912;28;20298;-68
2022/09/04 00:33:05;;;;;;;1.30;1.30;;;12.90;99.90;;;;;;6293044;28;20298;-68
2022/09/04 00:36:12;;;;;;;2.50;2.30;;;12.90;99.90;;;;;;6310672;28;20404;-68
2022/09/04 00:39:22;;;;;;;2.03;1.90;;;12.80;99.90;;;;;;6310304;28;20299;-68
2022/09/04 00:43:10;;;;;;;1.50;1.50;;;12.90;99.90;;;;;;6310241;28;20294;-68
2022/09/04 00:46:47;;;;;;;1.40;1.40;;;12.80;99.90;;;;;;6310725;28;20266;-68
2022/09/04 00:50:28;;;;;;;1.58;1.48;;;12.70;99.90;;;;;;6310619;28;20298;-69
2022/09/04 00:54:04;;;;;;;1.70;1.60;;;12.70;99.90;;;;;;6309743;28;20306;-69
2022/09/04 00:58:05;;;;;;;1.73;1.63;;;12.70;99.90;;;;;;6310036;28;20267;-68
2022/09/04 01:01:18;;;;;;;1.60;1.60;;;12.60;99.90;;;;;;6319436;28;20297;-68
2022/09/04 01:04:40;;;;;;;1.75;1.75;;;12.60;99.90;;;;;;6335499;28;20295;-68
2022/09/04 01:07:55;;;;;;;1.75;1.65;;;12.60;99.90;;;;;;6317468;28;20601;-68
2022/09/04 01:11:09;;;;;;;1.67;1.67;;;12.60;99.90;;;;;;6335558;28;20285;-68
2022/09/04 01:14:22;;;;;;;1.58;1.58;;;12.50;99.90;;;;;;6334726;28;20574;-68
2022/09/04 01:17:36;;;;;;;1.80;1.80;;;12.60;99.90;;;;;;6334915;28;20310;-69
2022/09/04 01:21:18;;;;;;;1.90;1.90;;;12.60;99.90;;;;;;6335568;28;20597;-69
2022/09/04 01:25:04;;;;;;;1.83;1.80;;;12.60;99.90;;;;;;6312944;28;20293;-69
2022/09/04 01:28:21;;;;;;;2.00;2.00;;;12.60;99.90;;;;;;6307371;28;20294;-68
2022/09/04 01:31:36;;;;;;;2.05;2.05;;;12.60;99.90;;;;;;6335554;28;20270;-68
2022/09/04 01:34:50;;;;;;;1.90;1.90;;;12.60;99.90;;;;;;6334813;28;20297;-68
2022/09/04 01:38:03;;;;;;;1.95;1.90;;;12.60;99.90;;;;;;6337580;28;20298;-68
2022/09/04 01:41:16;;;;;;;2.30;2.20;;;12.60;99.90;;;;;;6340319;28;20290;-67
2022/09/04 01:44:25;;;;;;;2.15;2.15;;;12.60;99.90;;;;;;6339940;28;20317;-68
2022/09/04 01:47:36;;;;;;;3.42;2.03;;;12.50;99.90;;;;;;6339768;28;20305;-68
2022/09/04 01:50:43;;;;;;;2.05;1.95;;;12.50;99.90;;;;;;6340469;28;20410;-68
2022/09/04 01:54:05;;;;;;;2.10;2.00;;;12.50;99.90;;;;;;6339910;28;20297;-68
2022/09/04 01:57:20;;;;;;;2.30;2.10;;;12.50;99.90;;;;;;6339929;28;20274;-68
2022/09/04 02:00:32;;;;;;;2.20;2.20;;;12.50;99.90;;;;;;6339769;28;20305;-67
2022/09/04 02:03:46;;;;;;;2.58;2.33;;;12.60;99.90;;;;;;6339872;28;20294;-68
2022/09/04 02:07:03;;;;;;;2.20;2.10;;;12.60;99.90;;;;;;6340043;28;20269;-68
2022/09/04 02:10:16;;;;;;;1.90;1.90;;;12.60;99.90;;;;;;6339131;28;20278;-68
2022/09/04 02:13:28;;;;;;;2.03;2.03;;;12.70;99.90;;;;;;6339701;28;20584;-69
2022/09/04 02:16:52;;;;;;;2.15;1.77;;;12.60;99.90;;;;;;6339244;28;20266;-68
2022/09/04 02:20:12;;;;;;;1.90;1.80;;;12.60;99.90;;;;;;6339437;28;20314;-68
2022/09/04 02:23:25;;;;;;;1.80;1.80;;;12.60;99.90;;;;;;6339114;28;20407;-68
2022/09/04 02:26:36;;;;;;;4.47;1.60;;;12.60;99.90;;;;;;6339233;28;20451;-68
2022/09/04 02:29:46;;;;;;;1.83;1.73;;;12.50;99.90;;;;;;6339392;28;20294;-68
2022/09/04 02:33:01;;;;;;;1.80;1.73;;;12.60;99.90;;;;;;6339043;28;20298;-68
2022/09/04 02:36:13;;;;;;;3.75;1.67;;;12.60;99.90;;;;;;6338798;28;20582;-68
2022/09/04 02:39:35;;;;;;;1.40;1.40;;;12.60;99.90;;;;;;6338803;28;20565;-68
2022/09/04 02:42:51;;;;;;;1.77;1.50;;;12.60;99.90;;;;;;6338418;28;20565;-68
2022/09/04 02:46:02;;;;;;;1.30;1.30;;;12.60;99.90;;;;;;6338840;28;20574;-69
2022/09/04 02:49:15;;;;;;;1.52;1.52;;;12.60;99.90;;;;;;6337801;28;20293;-68
2022/09/04 02:52:36;;;;;;;3.15;1.30;;;12.50;99.90;;;;;;6338187;28;20481;-68
2022/09/04 02:56:08;;;;;;;1.33;1.33;;;12.50;99.90;;;;;;6338357;28;20270;-68
2022/09/04 02:59:36;;;;;;;1.30;1.30;;;12.50;99.90;;;;;;6337848;28;20305;-69
2022/09/04 03:02:48;;;;;;;3.80;1.27;;;12.40;99.90;;;;;;6335568;28;20549;-68
2022/09/04 03:06:01;;;;;;;1.40;1.40;;;12.50;99.90;;;;;;6338598;28;20270;-69
2022/09/04 03:09:12;;;;;;;1.30;1.30;;;12.40;99.90;;;;;;6338296;28;20293;-68
2022/09/04 03:12:31;;;;;;;1.30;1.30;;;12.40;99.90;;;;;;6337670;28;20298;-69
2022/09/04 03:15:43;;;;;;;1.27;1.20;;;12.30;99.90;;;;;;6338241;28;20270;-69
2022/09/04 03:19:14;;;;;;;1.10;1.10;;;12.30;99.90;;;;;;6338093;28;20298;-68
2022/09/04 03:22:28;;;;;;;1.20;1.20;;;12.30;99.90;;;;;;6335260;28;20299;-69
2022/09/04 03:26:12;;;;;;;1.50;1.50;;;12.30;99.90;;;;;;6337954;28;20266;-69
2022/09/04 03:29:28;;;;;;;1.65;1.65;;;12.30;99.90;;;;;;6336870;28;20585;-68
2022/09/04 03:32:45;;;;;;;1.30;1.30;;;12.20;99.90;;;;;;6336904;28;20294;-68
2022/09/04 03:35:55;;;;;;;1.30;1.30;;;12.10;99.90;;;;;;6337615;28;20261;-69
2022/09/04 03:39:07;;;;;;;1.25;1.25;;;12.10;99.90;;;;;;6337531;28;20302;-68
2022/09/04 03:42:19;;;;;;;1.13;1.13;;;12.10;99.90;;;;;;6337189;28;20477;-68
2022/09/04 03:45:35;;;;;;;1.40;1.30;;;12.10;99.90;;;;;;6337831;28;20293;-68
2022/09/04 03:49:00;;;;;;;1.13;1.13;;;12.00;99.90;;;;;;6337199;28;20314;-68
2022/09/04 03:52:13;;;;;;;1.00;1.00;;;12.00;99.90;;;;;;6336616;28;20339;-67
2022/09/04 03:55:44;;;;;;;1.20;1.20;;;12.10;99.90;;;;;;6337697;28;20440;-68
2022/09/04 03:59:01;;;;;;;1.20;1.20;;;12.20;99.90;;;;;;6337243;28;20294;-68
2022/09/04 04:02:14;;;;;;;1.20;1.20;;;12.10;99.90;;;;;;6335406;28;20306;-67
2022/09/04 04:05:40;;;;;;;1.30;1.30;;;12.20;99.90;;;;;;6337403;28;20553;-67
2022/09/04 04:09:35;;;;;;;1.20;1.20;;;12.20;99.90;;;;;;6336406;28;20321;-68
2022/09/04 04:13:14;;;;;;;1.20;1.20;;;12.10;99.90;;;;;;6305873;28;20301;-67
2022/09/04 04:16:32;;;;;;;1.13;1.13;;;12.00;99.90;;;;;;6312117;28;20271;-68
2022/09/04 04:19:54;;;;;;;1.40;1.40;;;12.10;99.90;;;;;;6311024;28;20294;-69
2022/09/04 04:23:18;;;;;;;1.25;1.25;;;12.10;99.90;;;;;;6310986;28;20298;-68
2022/09/04 04:26:40;;;;;;;1.08;1.08;;;12.10;99.90;;;;;;6311780;28;20266;-68
2022/09/04 04:30:02;;;;;;;1.13;1.13;;;12.10;99.90;;;;;;6311392;28;20294;-68
2022/09/04 04:33:41;;;;;;;1.17;1.17;;;12.10;99.90;;;;;;6311116;28;20303;-69
2022/09/04 04:36:55;;;;;;;1.10;1.10;;;12.20;99.90;;;;;;6311010;28;20537;-68
2022/09/04 04:40:06;;;;;;;1.52;1.50;;;12.20;99.90;;;;;;6311567;28;20270;-68
2022/09/04 04:43:18;;;;;;;1.33;1.33;;;12.20;99.90;;;;;;6310881;28;20578;-68
2022/09/04 04:46:41;;;;;;;1.38;1.27;;;12.30;99.90;;;;;;6310997;28;20270;-69
2022/09/04 04:50:00;;;;;;;1.60;1.20;;;12.30;99.90;;;;;;6309666;28;20455;-68
2022/09/04 04:53:14;;;;;;;1.45;1.45;;;12.30;99.90;;;;;;6310734;28;20298;-68
2022/09/04 04:56:25;;;;;;;1.10;1.10;;;12.30;99.90;;;;;;6311223;28;20271;-69
2022/09/04 04:59:40;;;;;;;1.15;1.15;;;12.30;99.90;;;;;;6310497;28;20310;-68
2022/09/04 05:02:59;;;;;;;1.30;1.30;;;12.30;99.90;;;;;;6310341;28;20582;-68
2022/09/04 05:06:13;;;;;;;1.23;1.15;;;12.30;99.90;;;;;;6311172;28;20451;-69
2022/09/04 05:09:30;;;;;;;0.95;0.95;;;12.10;99.90;;;;;;6310761;28;20298;-68
2022/09/04 05:12:54;;;;;;;1.20;1.20;;;12.20;99.90;;;;;;6310061;28;20295;-68
2022/09/04 05:16:06;;;;;;;1.15;1.15;;;12.30;99.90;;;;;;6310984;28;20270;-68
2022/09/04 05:19:23;;;;;;;1.10;1.10;;;12.30;99.90;;;;;;6310355;28;20294;-69
2022/09/04 05:22:35;;;;;;;1.15;1.15;;;12.40;99.90;;;;;;6310402;28;20295;-69
2022/09/04 05:25:47;;;;;;;1.38;1.38;;;12.30;99.90;;;;;;6310938;28;20291;-69
2022/09/04 05:29:00;;;;;;;1.20;1.20;;;12.30;99.90;;;;;;6310027;28;20295;-69
2022/09/04 05:32:18;;;;;;;0.90;0.90;;;12.30;99.90;;;;;;6310096;28;20301;-68
2022/09/04 05:35:32;;;;;;;1.10;1.10;;;12.30;99.90;;;;;;6310433;28;20270;-68
2022/09/04 05:38:50;;;;;;;1.10;1.10;;;12.30;99.90;;;;;;6310197;28;20295;-68
2022/09/04 05:42:41;;;;;;;1.10;1.10;;;12.40;99.90;;;;;;6309792;28;20267;-69
2022/09/04 05:46:01;;;;;;;1.02;1.02;;;12.50;99.90;;;;;;6310738;28;20301;-68
2022/09/04 05:49:18;;;;;;;0.90;0.90;;;12.40;99.90;;;;;;6310117;28;20314;-69
2022/09/04 05:52:48;;;;;;;0.90;0.90;;;12.50;99.90;;;;;;6309855;28;20294;-69
2022/09/04 05:56:24;;;;;;;0.90;0.80;;;12.40;99.90;;;;;;6310184;28;20454;-68
2022/09/04 06:00:00;;;;;;;0.90;0.90;;;12.40;99.90;;;;;;6308768;28;20311;-68
2022/09/04 06:03:39;;;;;;;0.90;0.90;;;12.40;99.90;;;;;;6307931;28;20287;-68
2022/09/04 06:06:53;;;;;;;1.00;1.00;;;12.40;99.90;;;;;;6310063;28;20270;-68
2022/09/04 06:10:07;;;;;;;1.05;1.05;;;12.40;99.90;;;;;;6314026;28;20274;-68
2022/09/04 06:13:41;;;;;;;1.10;1.10;;;12.50;99.90;;;;;;6334793;28;20293;-68
2022/09/04 06:17:02;;;;;;;1.55;1.10;;;12.60;99.90;;;;;;6334552;28;20265;-68
2022/09/04 06:20:34;;;;;;;1.33;1.00;;;12.60;99.90;;;;;;6334659;28;20270;-68
2022/09/04 06:24:00;;;;;;;1.10;1.10;;;12.60;99.90;;;;;;6334840;28;20297;-68
2022/09/04 06:27:24;;;;;;;0.90;0.90;;;12.60;99.90;;;;;;6338565;28;20310;-69
2022/09/04 06:30:37;;;;;;;0.95;0.90;;;12.60;99.90;;;;;;6339557;28;20266;-68
2022/09/04 06:33:56;;;;;;;0.70;0.70;;;12.60;99.90;;;;;;6338512;28;20310;-69
2022/09/04 06:37:11;;;;;;;1.00;1.00;;;12.70;99.90;;;;;;6338920;28;20266;-70
2022/09/04 06:40:37;;;;;;;0.90;0.90;;;12.70;99.90;;;;;;6339364;28;20460;-69
2022/09/04 06:43:51;;;;;;;2.67;1.65;;;12.80;99.90;;;;;;6338120;28;20313;-67
2022/09/04 06:47:11;;;;;;;1.85;1.60;;;12.90;99.90;;;;;;6337932;28;20290;-68
2022/09/04 06:50:24;;;;;;;0.90;0.90;;;13.00;99.90;;;;;;6338658;28;20549;-68
2022/09/04 06:53:41;;;;;;;0.85;0.85;;;13.20;99.90;;;;;;6338237;28;20480;-68
2022/09/04 06:57:10;;;;;;;0.98;0.98;;;13.40;99.90;;;;;;6337727;28;20269;-68
2022/09/04 07:00:18;;;;;;;0.90;0.90;;;13.50;99.90;;;;;;6338240;28;20306;-68
2022/09/04 07:03:42;;;;;;;0.90;0.90;;;13.50;99.90;;;;;;6338042;28;20313;-68
2022/09/04 07:07:03;;;;;;;0.77;0.77;;;13.60;99.90;;;;;;6337953;28;20557;-68
2022/09/04 07:10:12;;;;;;;0.82;0.82;;;13.60;99.90;;;;;;6338466;28;20581;-68
2022/09/04 07:13:50;;;;;;;1.00;0.98;;;13.60;99.90;;;;;;6337270;28;20293;-69
2022/09/04 07:17:06;;;;;;;0.77;0.77;;;13.60;99.90;;;;;;6337483;28;20436;-68
2022/09/04 07:20:20;;;;;;;1.08;1.02;;;13.50;99.90;;;;;;6337783;28;20416;-68
2022/09/04 07:23:37;;;;;;;0.80;0.80;;;13.50;99.90;;;;;;6337566;28;20293;-68
2022/09/04 07:26:49;;;;;;;1.52;1.10;;;13.50;99.90;;;;;;6337659;28;20484;-68
2022/09/04 07:29:58;;;;;;;1.55;0.90;;;13.40;99.90;;;;;;6336745;28;20278;-68
2022/09/04 07:33:11;;;;;;;1.10;1.10;;;13.40;99.90;;;;;;6337688;28;20294;-69
2022/09/04 07:36:21;;;;;;;0.80;0.80;;;13.40;99.90;;;;;;6337506;28;20557;-69
2022/09/04 07:39:43;;;;;;;0.90;0.90;;;13.50;99.90;;;;;;6336915;28;20293;-69
2022/09/04 07:42:53;;;;;;;0.85;0.85;;;13.50;99.90;;;;;;6337521;28;20293;-69
2022/09/04 07:46:04;;;;;;;0.80;0.80;;;13.50;99.90;;;;;;6337334;28;20301;-69
2022/09/04 07:49:19;;;;;;;0.77;0.77;;;13.50;99.90;;;;;;6337294;28;20293;-69
2022/09/04 07:53:00;;;;;;;0.80;0.80;;;13.60;99.90;;;;;;6336598;28;20289;-69
2022/09/04 07:56:20;;;;;;;0.65;0.65;;;13.60;99.90;;;;;;6337070;28;20275;-69
2022/09/04 08:00:07;;;;;;;0.80;0.80;;;13.60;99.90;;;;;;6336663;28;20298;-69
2022/09/04 08:03:44;;;;;;;0.82;0.80;;;13.60;99.90;;;;;;6336822;28;20473;-69
2022/09/04 08:07:04;;;;;;;0.73;0.73;;;13.60;99.90;;;;;;6306539;28;20321;-69
2022/09/04 08:10:26;;;;;;;0.70;0.70;;;13.60;99.90;;;;;;6336971;28;20261;-69
2022/09/04 08:13:54;;;;;;;0.68;0.68;;;13.60;99.90;;;;;;6336478;28;20297;-69
2022/09/04 08:17:57;;;;;;;0.63;0.63;;;13.60;99.90;;;;;;6336680;28;20274;-69
2022/09/04 08:21:15;;;;;;;0.60;0.60;;;13.60;99.90;;;;;;6234883;28;20281;-69
2022/09/04 08:25:03;;;;;;;0.90;0.68;;;13.70;99.90;;;;;;6234308;28;20612;-69
2022/09/04 08:28:23;;;;;;;0.57;0.57;;;13.70;99.90;;;;;;6234109;28;20304;-69
2022/09/04 08:31:32;;;;;;;0.65;0.65;;;13.70;99.90;;;;;;6234720;28;20273;-69
2022/09/04 08:35:00;;;;;;;0.60;0.60;;;13.70;99.90;;;;;;6234221;28;20305;-69
2022/09/04 08:38:50;;;;;;;0.50;0.50;;;13.80;99.90;;;;;;6233824;28;20296;-69
2022/09/04 08:42:40;;;;;;;0.40;0.40;;;13.80;99.50;;;;;;6233972;28;20272;-69
2022/09/04 08:46:34;;;;;;;0.40;0.40;;;13.90;99.90;;;;;;6230212;28;20296;-68
2022/09/04 08:49:59;;;;;;;0.55;0.55;;;13.90;99.90;;;;;;6233534;28;20296;-68
2022/09/04 08:53:51;;;;;;;0.60;0.60;;;13.90;99.90;;;;;;6329818;28;20613;-69
2022/09/04 08:57:17;;;;;;;0.63;0.63;;;14.00;99.90;;;;;;6335226;28;20270;-69
2022/09/04 09:00:29;;;;;;;0.40;0.40;;;14.00;99.90;;;;;;6336178;28;20577;-69
2022/09/04 09:04:07;;;;;;;0.60;0.60;;;14.00;99.90;;;;;;6335200;28;20301;-67
2022/09/04 09:08:08;;;;;;;0.60;0.60;;;14.00;99.90;;;;;;6335389;28;20301;-67
2022/09/04 09:11:52;;;;;;;0.50;0.50;;;14.10;99.90;;;;;;6335440;28;20281;-68
2022/09/04 09:15:48;;;;;;;0.60;0.60;;;14.10;99.90;;;;;;6328480;28;20286;-68
2022/09/04 09:19:11;;;;;;;1.10;0.43;;;14.00;99.90;;;;;;6335381;28;20297;-69
2022/09/04 09:22:44;;;;;;;0.70;0.70;;;14.00;99.90;;;;;;6335302;28;20324;-69
2022/09/04 09:25:52;;;;;;;1.00;1.00;;;14.10;99.40;;;;;;6335764;28;20329;-69
2022/09/04 09:29:41;;;;;;;0.80;0.80;;;14.00;99.60;;;;;;6335145;28;20358;-69
2022/09/04 09:34:04;;;;;;;0.73;0.73;;;14.00;99.20;;;;;;6334697;28;20293;-69
2022/09/04 09:37:42;;;;;;;1.65;0.70;;;14.10;99.60;;;;;;6344549;28;20292;-69
2022/09/04 09:41:46;;;;;;;0.70;0.70;;;14.20;99.30;;;;;;6335097;28;20281;-69
2022/09/04 09:45:17;;;;;;;0.52;0.52;;;14.20;99.70;;;;;;6333063;28;20590;-69
2022/09/04 09:49:06;;;;;;;0.50;0.50;;;14.20;99.40;;;;;;6334723;28;20302;-68
2022/09/04 09:52:47;;;;;;;0.65;0.65;;;14.30;99.20;;;;;;6334222;28;20289;-69
2022/09/04 09:56:50;;;;;;;0.60;0.60;;;14.30;98.70;;;;;;6335180;28;20278;-68
2022/09/04 10:00:16;;;;;;;0.60;0.60;;;14.40;98.90;;;;;;6336279;28;20298;-69
2022/09/04 10:04:10;;;;;;;0.50;0.50;;;14.50;98.30;;;;;;6339258;28;20290;-68
2022/09/04 10:08:09;;;;;;;0.55;0.55;;;14.50;98.40;;;;;;6339077;28;20294;-68
2022/09/04 10:12:02;;;;;;;0.60;0.60;;;14.60;97.90;;;;;;6323260;28;20401;-69
2022/09/04 10:16:10;;;;;;;0.70;0.70;;;14.70;98.40;;;;;;6313490;28;20453;-68
2022/09/04 10:20:15;;;;;;;0.50;0.50;;;14.70;97.60;;;;;;6313685;28;20461;-68
2022/09/04 10:24:19;;;;;;;0.80;0.80;;;14.80;97.30;;;;;;6236850;28;20300;-67
2022/09/04 10:28:13;;;;;;;0.70;0.70;;;14.90;96.70;;;;;;6248709;28;20298;-68
2022/09/04 10:32:01;;;;;;;0.80;0.80;;;14.90;96.60;;;;;;6313762;28;20479;-69
2022/09/04 10:35:24;;;;;;;0.73;0.73;;;15.00;96.40;;;;;;6260315;28;20270;-69
2022/09/04 10:40:34;;;;;;;0.47;0.47;;;15.00;95.80;;;;;;6313105;28;20303;-68
2022/09/04 10:42:18;;;;;;;0.65;0.65;;;15.10;96.10;;;;;;6313165;28;20302;-68
2022/09/04 10:45:26;;;;;;;0.63;0.63;;;15.20;96.00;;;;;;6313277;28;20275;-68
2022/09/04 10:48:54;;;;;;;0.70;0.70;;;15.20;94.90;;;;;;6312589;28;20298;-68
2022/09/04 10:52:39;;;;;;;0.60;0.60;;;15.20;95.50;;;;;;6312838;28;20275;-68
2022/09/04 10:56:04;;;;;;;0.60;0.60;;;15.30;93.90;;;;;;6312957;28;20279;-68
2022/09/04 10:59:38;;;;;;;0.60;0.60;;;15.30;94.20;;;;;;6312513;28;20298;-68
2022/09/04 11:03:34;;;;;;;0.50;0.50;;;15.40;93.20;;;;;;6312313;28;20297;-68
2022/09/04 11:07:13;;;;;;;0.50;0.50;;;15.60;91.40;;;;;;6313166;28;20270;-68
2022/09/04 11:10:31;;;;;;;0.60;0.60;;;15.70;93.40;;;;;;6311583;28;20286;-68
2022/09/04 11:14:05;;;;;;;0.40;0.40;;;15.70;89.30;;;;;;6311988;28;20570;-69
2022/09/04 11:18:02;;;;;;;0.40;0.40;;;15.90;90.60;;;;;;6312478;28;20290;-69
2022/09/04 11:21:50;;;;;;;0.60;0.60;;;16.10;90.30;;;;;;6289839;28;20565;-68
2022/09/04 11:25:47;;;;;;;0.60;0.60;;;16.30;91.80;;;;;;6311792;28;20279;-68
2022/09/04 11:29:21;;;;;;;0.70;0.70;;;16.40;91.60;;;;;;6305334;28;20297;-69
2022/09/04 11:32:57;;;;;;;2.13;0.90;;;16.60;91.10;;;;;;6311931;28;20294;-69
2022/09/04 11:36:47;;;;;;;0.50;0.50;;;16.50;92.30;;;;;;6312487;28;20270;-68
2022/09/04 11:40:50;;;;;;;1.00;1.00;;;16.50;92.00;;;;;;6310750;28;20266;-68
2022/09/04 11:44:45;;;;;;;0.70;0.70;;;16.60;92.10;;;;;;6269167;28;20310;-69
2022/09/04 11:48:36;;;;;;;1.75;0.80;;;16.50;92.00;;;;;;6311144;28;20297;-68
2022/09/04 11:52:22;;;;;;;0.80;0.80;;;16.50;92.80;;;;;;6311886;28;20566;-69
2022/09/04 11:56:05;;;;;;;0.95;0.95;;;16.50;93.00;;;;;;6310936;28;20573;-68
2022/09/04 11:59:37;;;;;;;0.80;0.80;;;16.40;92.20;;;;;;6313749;28;20360;-68
2022/09/04 12:03:30;;;;;;;0.70;0.70;;;16.20;92.70;;;;;;6335654;28;20297;-69
2022/09/04 12:06:52;;;;;;;0.60;0.60;;;16.10;92.90;;;;;;6336833;28;20266;-68
2022/09/04 12:10:23;;;;;;;0.80;0.80;;;16.10;93.70;;;;;;6335481;28;20293;-67
2022/09/04 12:13:51;;;;;;;0.80;0.80;;;16.10;93.20;;;;;;6335784;28;20293;-69
2022/09/04 12:17:26;;;;;;;2.08;0.82;;;16.00;92.50;;;;;;6335398;28;20269;-69
2022/09/04 12:21:11;;;;;;;0.70;0.70;;;16.00;93.60;;;;;;6336204;28;20270;-68
2022/09/04 12:25:02;;;;;;;0.90;0.90;;;16.00;93.40;;;;;;6335700;28;20484;-69
2022/09/04 12:28:37;;;;;;;1.55;1.10;;;16.00;95.40;;;;;;6335444;28;20477;-68
2022/09/04 12:32:26;;;;;;;0.90;0.90;;;15.90;95.20;;;;;;6335940;28;20422;-68
2022/09/04 12:36:19;;;;;;;0.90;0.90;;;15.80;95.30;;;;;;6334984;28;20278;-68
2022/09/04 12:39:59;;;;;;;0.90;0.90;;;15.70;95.10;;;;;;6335099;28;20301;-68
2022/09/04 12:43:18;;;;;;;0.70;0.70;;;15.70;96.40;;;;;;6315992;28;20294;-68
2022/09/04 12:46:39;;;;;;;0.70;0.70;;;15.70;95.70;;;;;;6335390;28;20270;-68
2022/09/04 12:50:20;;;;;;;1.05;1.05;;;15.80;95.80;;;;;;6335299;28;20305;-67
2022/09/04 12:54:01;;;;;;;2.40;2.40;;;15.80;95.90;;;;;;6335358;28;20297;-67
2022/09/04 12:57:24;;;;;;;0.93;0.93;;;15.80;95.70;;;;;;6332598;28;20452;-68
2022/09/04 13:00:39;;;;;;;0.90;0.90;;;15.90;95.50;;;;;;6321466;28;20294;-68
2022/09/04 13:04:01;;;;;;;1.35;0.77;;;16.00;95.20;;;;;;6310184;28;20447;-68
2022/09/04 13:07:23;;;;;;;2.28;2.28;;;15.90;94.00;;;;;;6309862;28;20278;-68
2022/09/04 13:10:34;;;;;;;1.00;1.00;;;15.90;94.70;;;;;;6310165;28;20282;-68
2022/09/04 13:13:50;;;;;;;1.33;0.70;;;15.80;93.80;;;;;;6309883;28;20299;-68
2022/09/04 13:17:02;;;;;;;0.98;0.68;;;15.90;94.00;;;;;;6309972;28;20270;-68
2022/09/04 13:20:19;;;;;;;0.90;0.90;;;15.80;93.40;;;;;;6310265;28;20347;-68
2022/09/04 13:23:49;;;;;;;0.75;0.75;;;15.80;94.00;;;;;;6309871;28;20294;-68
2022/09/04 13:27:15;;;;;;;0.90;0.90;;;15.70;93.60;;;;;;6309537;28;20270;-67
2022/09/04 13:30:24;;;;;;;1.10;0.68;;;15.80;93.70;;;;;;6309778;28;20286;-68
2022/09/04 13:33:44;;;;;;;0.80;0.80;;;15.70;93.50;;;;;;6311739;28;20294;-68
2022/09/04 13:37:05;;;;;;;0.80;0.80;;;15.70;93.40;;;;;;6314310;28;20275;-68
2022/09/04 13:40:38;;;;;;;0.70;0.70;;;15.70;93.40;;;;;;6315230;28;20274;-68
2022/09/04 13:44:04;;;;;;;0.98;0.90;;;15.60;93.30;;;;;;6313714;28;20294;-68
2022/09/04 13:47:14;;;;;;;0.73;0.73;;;15.60;93.20;;;;;;6314621;28;20291;-68
2022/09/04 13:50:24;;;;;;;0.85;0.85;;;15.60;93.60;;;;;;6315152;28;20307;-68
2022/09/04 13:53:35;;;;;;;0.88;0.88;;;15.70;93.70;;;;;;6314221;28;20482;-68
2022/09/04 13:56:49;;;;;;;1.00;1.00;;;15.60;93.90;;;;;;6314456;28;20554;-68
2022/09/04 13:59:59;;;;;;;0.80;0.80;;;15.60;94.00;;;;;;6322394;28;20306;-68
2022/09/04 14:03:11;;;;;;;0.80;0.80;;;15.60;93.60;;;;;;6338963;28;20601;-68
2022/09/04 14:06:20;;;;;;;0.80;0.80;;;15.70;93.70;;;;;;6339919;28;20270;-68
2022/09/04 14:09:26;;;;;;;0.80;0.80;;;15.70;93.60;;;;;;6339174;28;20298;-69
2022/09/04 14:12:52;;;;;;;0.60;0.60;;;15.80;93.60;;;;;;6339392;28;20293;-67
2022/09/04 14:16:07;;;;;;;1.27;0.80;;;15.80;94.10;;;;;;6339901;28;20265;-69
2022/09/04 14:19:31;;;;;;;0.90;0.90;;;15.90;94.00;;;;;;6339466;28;20609;-69
2022/09/04 14:22:48;;;;;;;1.05;1.05;;;16.00;93.40;;;;;;6339006;28;20577;-68
2022/09/04 14:26:05;;;;;;;1.10;1.10;;;16.00;93.20;;;;;;6339042;28;20280;-69
2022/09/04 14:29:24;;;;;;;0.82;0.82;;;16.00;93.30;;;;;;6338843;28;20297;-68
2022/09/04 14:32:51;;;;;;;1.08;0.85;;;16.10;93.40;;;;;;6338789;28;20290;-69
2022/09/04 14:36:16;;;;;;;1.00;0.55;;;16.20;92.80;;;;;;6339162;28;20266;-68
2022/09/04 14:39:26;;;;;;;0.80;0.80;;;16.20;93.10;;;;;;6338695;28;20293;-69
2022/09/04 14:42:43;;;;;;;0.70;0.70;;;16.20;92.30;;;;;;6338322;28;20593;-68
2022/09/04 14:46:03;;;;;;;0.70;0.70;;;16.10;92.90;;;;;;6338199;28;20265;-69
2022/09/04 14:49:12;;;;;;;2.10;2.10;;;16.20;93.60;;;;;;6338365;28;20293;-69
2022/09/04 14:52:22;;;;;;;1.45;1.05;;;16.10;92.70;;;;;;6337938;28;20289;-69
2022/09/04 14:55:30;;;;;;;1.15;1.00;;;16.30;92.90;;;;;;6339101;28;20261;-68
2022/09/04 14:58:39;;;;;;;0.82;0.82;;;16.20;92.10;;;;;;6337965;28;20576;-68
2022/09/04 15:02:15;;;;;;;0.80;0.80;;;16.20;91.90;;;;;;6338943;28;20302;-68
2022/09/04 15:05:24;;;;;;;0.80;0.80;;;16.20;93.80;;;;;;6337350;28;20453;-68
2022/09/04 15:08:33;;;;;;;1.80;1.80;;;16.20;92.90;;;;;;6337392;28;20293;-68
2022/09/04 15:11:45;;;;;;;1.13;1.13;;;16.10;92.90;;;;;;6338390;28;20278;-68
2022/09/04 15:14:54;;;;;;;0.82;0.82;;;16.00;92.60;;;;;;6337120;28;20585;-68
2022/09/04 15:18:08;;;;;;;0.95;0.95;;;16.00;92.50;;;;;;6337771;28;20550;-68
2022/09/04 15:21:19;;;;;;;1.50;1.40;;;15.90;92.90;;;;;;6338203;28;20565;-68
2022/09/04 15:24:32;;;;;;;0.98;0.98;;;15.90;93.00;;;;;;6337456;28;20470;-68
2022/09/04 15:27:45;;;;;;;1.20;1.17;;;15.80;92.50;;;;;;6337727;28;20327;-68
2022/09/04 15:31:10;;;;;;;1.10;1.10;;;15.70;93.20;;;;;;6337541;28;20293;-68
2022/09/04 15:34:22;;;;;;;1.10;1.10;;;15.80;92.80;;;;;;6337453;28;20293;-68
2022/09/04 15:37:28;;;;;;;0.95;0.95;;;15.90;94.80;;;;;;6337602;28;20475;-68
2022/09/04 15:40:37;;;;;;;1.05;0.95;;;15.90;93.80;;;;;;6338105;28;20421;-68
2022/09/04 15:43:47;;;;;;;0.80;0.80;;;15.90;92.50;;;;;;6337472;28;20468;-68
2022/09/04 15:47:01;;;;;;;1.30;0.90;;;15.80;92.00;;;;;;6337184;28;20274;-68
2022/09/04 15:50:20;;;;;;;1.10;0.95;;;15.80;92.10;;;;;;6337554;28;20266;-68
2022/09/04 15:53:29;;;;;;;2.65;1.00;;;15.70;92.60;;;;;;6337135;28;20293;-68
2022/09/04 15:56:38;;;;;;;1.65;0.88;;;15.70;92.40;;;;;;6337274;28;20270;-70
2022/09/04 15:59:50;;;;;;;0.80;0.80;;;15.70;92.60;;;;;;6336623;28;20305;-68
2022/09/04 16:03:05;;;;;;;0.70;0.70;;;15.70;92.80;;;;;;6336604;28;20589;-68
2022/09/04 16:06:18;;;;;;;0.80;0.80;;;15.70;93.00;;;;;;6337406;28;20267;-68
2022/09/04 16:09:27;;;;;;;0.95;0.75;;;15.70;92.60;;;;;;6336862;28;20297;-69
2022/09/04 16:12:42;;;;;;;0.68;0.68;;;15.80;93.40;;;;;;6311229;28;20290;-68
2022/09/04 16:15:47;;;;;;;0.65;0.65;;;15.70;95.40;;;;;;6312067;28;20266;-68
2022/09/04 16:19:04;;;;;;;1.02;1.02;;;15.60;93.40;;;;;;6311302;28;20286;-68
2022/09/04 16:22:20;;;;;;;0.90;0.90;;;15.60;93.90;;;;;;6310996;28;20294;-68
2022/09/04 16:25:28;;;;;;;1.00;1.00;;;15.60;93.60;;;;;;6311107;28;20271;-69
2022/09/04 16:28:39;;;;;;;0.90;0.90;;;15.60;93.30;;;;;;6311190;28;20294;-68
2022/09/04 16:31:51;;;;;;;0.82;0.82;;;15.60;93.60;;;;;;6311514;28;20293;-68
2022/09/04 16:35:02;;;;;;;0.80;0.80;;;15.50;93.90;;;;;;6310660;28;20565;-68
2022/09/04 16:38:14;;;;;;;0.80;0.80;;;15.50;93.90;;;;;;6310741;28;20303;-69
2022/09/04 16:41:25;;;;;;;0.70;0.70;;;15.50;93.60;;;;;;6311567;28;20277;-67
2022/09/04 16:44:36;;;;;;;0.80;0.80;;;15.40;93.50;;;;;;6310782;28;20330;-68
2022/09/04 16:47:48;;;;;;;1.10;1.10;;;15.40;94.90;;;;;;6310815;28;20291;-69
2022/09/04 16:51:04;;;;;;;1.42;0.90;;;15.30;95.00;;;;;;6310964;28;20279;-69
2022/09/04 16:54:34;;;;;;;0.80;0.80;;;15.30;93.70;;;;;;6311135;28;20479;-68
2022/09/04 16:57:46;;;;;;;0.70;0.70;;;15.30;93.70;;;;;;6310669;28;20290;-68
2022/09/04 17:01:03;;;;;;;0.82;0.82;;;15.30;93.90;;;;;;6310635;28;20387;-68
2022/09/04 17:04:29;;;;;;;0.90;0.90;;;15.30;93.70;;;;;;6310278;28;20290;-68
2022/09/04 17:07:38;;;;;;;0.82;0.82;;;15.30;94.30;;;;;;6309969;28;20290;-69
2022/09/04 17:10:48;;;;;;;0.80;0.80;;;15.20;94.00;;;;;;6321833;28;20267;-68
2022/09/04 17:14:02;;;;;;;1.10;1.10;;;15.20;94.00;;;;;;6335233;28;20331;-67
2022/09/04 17:17:21;;;;;;;1.00;1.00;;;15.30;93.90;;;;;;6335378;28;20290;-69
2022/09/04 17:20:45;;;;;;;0.70;0.70;;;15.20;94.50;;;;;;6335490;28;20270;-69
2022/09/04 17:24:18;;;;;;;1.20;1.20;;;15.20;95.80;;;;;;6334920;28;20476;-68
2022/09/04 17:27:55;;;;;;;3.00;0.90;;;15.20;96.70;;;;;;6334612;28;20289;-68
2022/09/04 17:31:27;;;;;;;0.90;0.90;;;15.10;96.70;;;;;;6334891;28;20266;-68
2022/09/04 17:34:54;;;;;;;1.45;1.00;;;15.10;95.70;;;;;;6334737;28;20306;-68
2022/09/04 17:38:23;;;;;;;1.10;1.10;;;15.10;95.90;;;;;;6335194;28;20298;-68
2022/09/04 17:41:54;;;;;;;0.90;0.90;;;15.10;94.70;;;;;;6334343;28;20278;-68